Time;durP1;ratioP1;P1;durP2;ratioP2;P2;SDS_P1;SDS_P2;PMS_P1;PMS_P2;Temp;Humidity;BMP_temperature;BMP_pressure;BME280_temperature;BME280_humidity;BME280_pressure;Samples;Min_cycle;Max_cycle;Signal;HPM_P1;HPM_P2
2023/10/29 00:01:42;;;;;;;1.67;1.27;;;10.10;99.90;;;;;;5016990;28;20042;-85
2023/10/29 00:04:07;;;;;;;1.55;1.42;;;10.00;99.90;;;;;;5020611;28;20026;-85
2023/10/29 00:06:34;;;;;;;1.80;1.40;;;10.00;99.90;;;;;;5008948;28;20030;-84
2023/10/29 00:09:00;;;;;;;1.17;1.17;;;10.00;99.90;;;;;;5014829;28;20029;-84
2023/10/29 00:11:25;;;;;;;2.30;1.20;;;9.90;99.90;;;;;;5026247;28;20440;-77
2023/10/29 00:13:51;;;;;;;5.80;1.40;;;9.90;99.90;;;;;;5024052;28;20634;-77
2023/10/29 00:16:17;;;;;;;9.43;1.42;;;9.90;99.90;;;;;;5023953;28;20034;-76
2023/10/29 00:18:43;;;;;;;2.28;1.50;;;9.80;99.90;;;;;;5023092;28;20406;-77
2023/10/29 00:21:09;;;;;;;4.20;1.35;;;9.80;99.90;;;;;;5017700;28;20038;-77
2023/10/29 00:23:35;;;;;;;1.45;1.00;;;9.80;99.90;;;;;;5007571;28;20037;-77
2023/10/29 00:26:01;;;;;;;2.92;1.73;;;9.70;99.90;;;;;;5018207;28;20136;-77
2023/10/29 00:28:27;;;;;;;1.63;1.25;;;9.80;99.90;;;;;;5005295;28;20049;-77
2023/10/29 00:30:55;;;;;;;1.67;1.17;;;9.70;99.90;;;;;;5020064;28;20194;-77
2023/10/29 00:33:21;;;;;;;2.72;1.40;;;9.50;99.90;;;;;;5030872;28;20033;-77
2023/10/29 00:35:51;;;;;;;1.20;1.10;;;9.40;99.90;;;;;;5006251;28;20033;-76
2023/10/29 00:38:20;;;;;;;2.88;1.80;;;9.40;99.90;;;;;;5029477;28;20029;-77
2023/10/29 00:40:46;;;;;;;2.42;1.40;;;9.50;99.90;;;;;;5024097;28;20029;-77
2023/10/29 00:43:14;;;;;;;6.03;1.33;;;9.50;99.90;;;;;;5010092;28;20034;-77
2023/10/29 00:45:55;;;;;;;2.33;1.40;;;9.50;99.90;;;;;;5028431;28;20029;-76
2023/10/29 00:48:22;;;;;;;3.38;1.45;;;9.60;99.90;;;;;;5009439;28;20124;-78
2023/10/29 00:50:49;;;;;;;2.30;1.35;;;9.60;99.90;;;;;;5021095;28;20044;-77
2023/10/29 00:53:14;;;;;;;1.27;1.17;;;9.60;99.90;;;;;;5029059;28;20049;-89
2023/10/29 00:55:41;;;;;;;3.90;1.40;;;9.70;99.90;;;;;;5007619;28;20040;-89
2023/10/29 00:58:07;;;;;;;1.90;1.20;;;9.70;99.90;;;;;;5022825;28;20030;-93
2023/10/29 01:00:33;;;;;;;1.42;1.10;;;9.70;99.90;;;;;;5023372;28;20041;-89
2023/10/29 01:02:59;;;;;;;3.15;1.63;;;9.70;99.90;;;;;;4994492;28;20023;-90
2023/10/29 01:05:25;;;;;;;2.28;1.42;;;9.60;99.90;;;;;;5037998;28;20026;-90
2023/10/29 01:07:51;;;;;;;1.27;1.13;;;9.60;99.90;;;;;;5022937;28;20037;-91
2023/10/29 01:10:17;;;;;;;1.30;1.13;;;9.60;99.90;;;;;;5014813;28;20037;-90
2023/10/29 01:12:45;;;;;;;2.05;1.20;;;9.50;99.90;;;;;;4995844;28;20026;-89
2023/10/29 01:15:11;;;;;;;1.00;1.00;;;9.60;99.90;;;;;;5028789;28;20036;-89
2023/10/29 01:17:36;;;;;;;1.13;1.02;;;9.60;99.90;;;;;;5011480;28;20030;-89
2023/10/29 01:20:03;;;;;;;1.55;1.45;;;9.60;99.90;;;;;;5012710;28;20041;-91
2023/10/29 01:22:29;;;;;;;3.22;1.23;;;9.70;99.90;;;;;;5027487;28;20036;-91
2023/10/29 01:24:55;;;;;;;2.03;1.40;;;9.70;99.90;;;;;;5013102;28;20731;-90
2023/10/29 01:27:23;;;;;;;4.50;1.25;;;9.60;99.90;;;;;;5016267;28;20038;-90
2023/10/29 01:29:50;;;;;;;1.55;1.08;;;9.60;99.90;;;;;;5015819;28;20037;-89
2023/10/29 01:32:16;;;;;;;2.42;1.20;;;9.50;99.90;;;;;;5032199;28;20056;-90
2023/10/29 01:34:43;;;;;;;1.95;1.50;;;9.50;99.90;;;;;;5008479;28;20026;-89
2023/10/29 01:37:17;;;;;;;1.50;1.10;;;9.50;99.90;;;;;;5017221;28;20040;-90
2023/10/29 01:39:57;;;;;;;1.10;1.10;;;9.50;99.90;;;;;;5011940;28;20022;-89
2023/10/29 01:42:27;;;;;;;2.60;1.17;;;9.50;99.90;;;;;;5013825;28;20018;-89
2023/10/29 01:44:57;;;;;;;1.80;1.10;;;9.50;99.90;;;;;;5019861;28;20041;-89
2023/10/29 01:47:24;;;;;;;2.85;1.00;;;9.50;99.90;;;;;;5019123;28;20072;-89
2023/10/29 01:49:50;;;;;;;1.42;1.33;;;9.30;99.90;;;;;;5035938;28;20057;-90
2023/10/29 01:52:16;;;;;;;1.25;1.15;;;9.30;99.90;;;;;;5033955;28;20033;-88
2023/10/29 01:54:46;;;;;;;3.08;1.35;;;9.20;99.90;;;;;;5029066;28;20034;-90
2023/10/29 01:57:21;;;;;;;2.22;1.30;;;9.10;99.90;;;;;;5018913;28;20053;-89
2023/10/29 01:59:50;;;;;;;1.30;1.20;;;9.20;99.90;;;;;;5015681;28;20022;-92
2023/10/29 02:02:18;;;;;;;2.40;1.30;;;9.00;99.90;;;;;;4997726;28;20049;-84
2023/10/29 02:04:47;;;;;;;3.72;1.50;;;9.00;99.90;;;;;;4978880;28;20046;-83
2023/10/29 02:07:13;;;;;;;3.33;1.35;;;9.20;99.90;;;;;;4996316;28;20038;-85
2023/10/29 02:09:39;;;;;;;1.30;1.20;;;9.20;99.90;;;;;;4989076;28;20111;-84
2023/10/29 02:12:08;;;;;;;1.45;1.35;;;9.20;99.90;;;;;;4985479;28;20092;-83
2023/10/29 02:14:36;;;;;;;1.38;1.27;;;9.00;99.90;;;;;;4995033;28;20028;-84
2023/10/29 02:17:11;;;;;;;1.30;1.20;;;9.00;99.90;;;;;;4988530;28;20026;-83
2023/10/29 02:19:44;;;;;;;1.85;1.17;;;8.90;99.90;;;;;;4990027;28;20038;-83
2023/10/29 02:22:29;;;;;;;;;;;;;;;;;;;;;
2023/10/29 02:24:55;;;;;;;1.88;1.30;;;9.00;99.90;;;;;;5000980;28;20505;-83
2023/10/29 02:27:21;;;;;;;1.73;1.60;;;8.90;99.90;;;;;;4975637;28;20076;-83
2023/10/29 02:29:47;;;;;;;3.05;1.20;;;8.90;99.90;;;;;;4984139;28;20038;-84
2023/10/29 02:32:13;;;;;;;4.18;1.38;;;9.00;99.90;;;;;;5005425;28;20038;-74
2023/10/29 02:34:38;;;;;;;2.17;1.20;;;9.00;99.90;;;;;;4990257;28;20030;-74
2023/10/29 02:37:04;;;;;;;1.45;1.35;;;9.00;99.90;;;;;;4995312;28;20422;-74
2023/10/29 02:39:30;;;;;;;1.30;1.20;;;8.90;99.90;;;;;;4997757;28;20736;-73
2023/10/29 02:41:56;;;;;;;2.58;1.35;;;8.90;99.90;;;;;;4999574;28;20572;-74
2023/10/29 02:44:22;;;;;;;2.13;1.30;;;8.90;99.90;;;;;;5002227;28;20131;-73
2023/10/29 02:46:47;;;;;;;2.10;1.17;;;8.80;99.90;;;;;;5000944;28;20168;-74
2023/10/29 02:49:13;;;;;;;4.15;1.40;;;8.80;99.90;;;;;;4995740;28;20072;-74
2023/10/29 02:51:39;;;;;;;1.52;1.10;;;8.80;99.90;;;;;;4992404;28;20030;-79
2023/10/29 02:54:05;;;;;;;3.40;2.67;;;8.70;99.90;;;;;;4995544;28;20483;-75
2023/10/29 02:56:31;;;;;;;2.40;1.35;;;8.70;99.90;;;;;;4997059;28;20057;-75
2023/10/29 02:58:57;;;;;;;1.10;1.10;;;8.80;99.90;;;;;;4995786;28;20035;-74
2023/10/29 03:01:23;;;;;;;1.13;1.05;;;8.70;99.90;;;;;;4992846;28;20043;-74
2023/10/29 03:03:48;;;;;;;2.88;1.23;;;8.70;99.90;;;;;;4997372;28;20034;-73
2023/10/29 03:06:14;;;;;;;1.20;1.10;;;8.60;99.90;;;;;;4998238;28;20534;-74
2023/10/29 03:08:40;;;;;;;1.73;1.30;;;8.60;99.90;;;;;;4992886;28;20138;-74
2023/10/29 03:11:07;;;;;;;1.52;1.10;;;8.50;99.90;;;;;;4984774;28;20038;-74
2023/10/29 03:13:33;;;;;;;1.42;1.33;;;8.50;99.90;;;;;;5002963;28;20050;-89
2023/10/29 03:15:58;;;;;;;1.70;1.20;;;8.50;99.90;;;;;;5011112;28;20030;-89
2023/10/29 03:18:24;;;;;;;1.30;1.15;;;8.50;99.90;;;;;;5002576;28;20046;-90
2023/10/29 03:20:50;;;;;;;1.75;1.20;;;8.50;99.90;;;;;;5005247;28;20038;-90
2023/10/29 03:23:15;;;;;;;1.48;1.30;;;8.40;99.90;;;;;;5007459;28;20045;-89
2023/10/29 03:25:41;;;;;;;1.40;1.00;;;8.30;99.90;;;;;;5008171;28;20043;-90
2023/10/29 03:28:07;;;;;;;1.83;1.20;;;8.40;99.90;;;;;;5002895;28;20035;-88
2023/10/29 03:30:33;;;;;;;2.13;1.45;;;8.40;99.90;;;;;;5003151;28;20037;-89
2023/10/29 03:32:59;;;;;;;1.30;1.20;;;8.40;99.90;;;;;;5012794;28;20046;-89
2023/10/29 03:35:28;;;;;;;2.85;1.27;;;8.30;99.90;;;;;;4991011;28;20026;-90
2023/10/29 03:37:54;;;;;;;1.40;1.30;;;8.00;99.90;;;;;;5008881;28;20074;-89
2023/10/29 03:40:20;;;;;;;1.95;1.35;;;7.80;99.90;;;;;;5014787;28;20010;-89
2023/10/29 03:42:46;;;;;;;2.50;1.30;;;7.90;99.90;;;;;;4995483;28;20023;-75
2023/10/29 03:45:12;;;;;;;1.45;1.40;;;8.00;99.90;;;;;;4995645;28;20077;-74
2023/10/29 03:47:37;;;;;;;1.30;1.20;;;8.00;99.90;;;;;;4994284;28;20046;-74
2023/10/29 03:50:04;;;;;;;2.13;1.40;;;7.90;99.90;;;;;;5001509;28;20050;-74
2023/10/29 03:52:29;;;;;;;2.65;1.63;;;7.90;99.90;;;;;;4997400;28;20025;-74
2023/10/29 03:54:55;;;;;;;1.85;1.52;;;7.70;99.90;;;;;;4995523;28;20031;-74
2023/10/29 03:57:21;;;;;;;2.00;1.80;;;7.80;99.90;;;;;;4998559;28;20113;-74
2023/10/29 03:59:46;;;;;;;4.28;1.85;;;7.80;99.90;;;;;;4998795;28;20364;-74
2023/10/29 04:02:12;;;;;;;3.70;1.90;;;7.60;99.90;;;;;;4992840;28;20473;-73
2023/10/29 04:04:37;;;;;;;1.60;1.50;;;7.50;99.90;;;;;;5004529;28;20034;-74
2023/10/29 04:07:06;;;;;;;1.58;1.42;;;7.50;99.90;;;;;;4997037;28;20054;-73
2023/10/29 04:09:31;;;;;;;;;;;7.60;99.90;;;;;;5007853;28;20042;-74
2023/10/29 04:11:59;;;;;;;1.60;1.50;;;7.70;99.90;;;;;;4997457;28;19913;-74
2023/10/29 04:14:24;;;;;;;2.30;1.60;;;7.60;99.90;;;;;;4998520;28;20141;-74
2023/10/29 04:16:50;;;;;;;2.25;1.40;;;7.50;99.90;;;;;;4996411;28;20495;-74
2023/10/29 04:19:16;;;;;;;1.73;1.40;;;7.20;99.90;;;;;;4998111;28;20045;-74
2023/10/29 04:21:42;;;;;;;1.88;1.70;;;7.10;99.90;;;;;;4997301;28;20525;-76
2023/10/29 04:24:08;;;;;;;2.10;1.50;;;7.10;99.90;;;;;;4998508;28;20239;-77
2023/10/29 04:26:34;;;;;;;2.00;1.70;;;7.10;99.90;;;;;;5002329;28;20046;-76
2023/10/29 04:28:59;;;;;;;1.88;1.77;;;7.00;99.90;;;;;;5001978;28;20006;-77
2023/10/29 04:31:28;;;;;;;1.60;1.50;;;7.10;99.90;;;;;;4996219;28;20081;-76
2023/10/29 04:33:53;;;;;;;1.67;1.58;;;7.20;99.90;;;;;;4981889;28;20051;-76
2023/10/29 04:36:20;;;;;;;2.35;1.70;;;7.20;99.90;;;;;;5001884;28;20045;-77
2023/10/29 04:38:45;;;;;;;1.88;1.63;;;7.20;99.90;;;;;;4998307;28;20033;-77
2023/10/29 04:41:11;;;;;;;1.83;1.63;;;7.20;99.90;;;;;;4985436;28;20034;-76
2023/10/29 04:43:37;;;;;;;3.95;1.80;;;7.10;99.90;;;;;;4997431;28;20090;-77
2023/10/29 04:46:03;;;;;;;1.92;1.50;;;7.00;99.90;;;;;;4998078;28;20035;-76
2023/10/29 04:48:29;;;;;;;1.83;1.67;;;6.80;99.90;;;;;;4999441;28;20050;-76
2023/10/29 04:50:55;;;;;;;2.15;1.40;;;6.90;99.90;;;;;;5001476;28;20145;-76
2023/10/29 04:53:20;;;;;;;2.45;1.63;;;6.90;99.90;;;;;;4995581;28;20038;-74
2023/10/29 04:55:46;;;;;;;2.58;2.25;;;6.90;99.90;;;;;;4996788;28;20030;-74
2023/10/29 04:58:11;;;;;;;3.60;2.20;;;6.90;99.90;;;;;;4996869;28;20039;-74
2023/10/29 05:00:37;;;;;;;1.88;1.70;;;6.70;99.90;;;;;;4998268;28;20435;-74
2023/10/29 05:03:03;;;;;;;2.38;2.00;;;6.70;99.90;;;;;;4997337;28;20130;-73
2023/10/29 05:05:30;;;;;;;2.92;2.20;;;6.70;99.90;;;;;;4997361;28;20058;-74
2023/10/29 05:07:56;;;;;;;2.90;1.80;;;6.70;99.90;;;;;;4995261;28;20046;-73
2023/10/29 05:10:25;;;;;;;2.95;1.70;;;6.80;99.90;;;;;;4995356;28;20041;-74
2023/10/29 05:12:50;;;;;;;2.78;2.00;;;6.80;99.90;;;;;;5000217;28;20014;-73
2023/10/29 05:15:16;;;;;;;2.42;1.80;;;6.70;99.90;;;;;;4995928;28;20114;-73
2023/10/29 05:17:42;;;;;;;1.92;1.65;;;6.70;99.90;;;;;;4996527;28;20546;-73
2023/10/29 05:20:09;;;;;;;2.83;1.90;;;6.50;99.90;;;;;;4993833;28;20030;-73
2023/10/29 05:22:36;;;;;;;2.50;1.90;;;6.50;99.90;;;;;;4995460;28;20046;-73
2023/10/29 05:25:02;;;;;;;2.45;1.63;;;6.60;99.90;;;;;;4994213;28;20027;-74
2023/10/29 05:27:28;;;;;;;1.50;1.40;;;6.60;99.90;;;;;;4993624;28;20042;-73
2023/10/29 05:29:53;;;;;;;1.92;1.60;;;6.60;99.90;;;;;;4991523;28;20022;-71
2023/10/29 05:32:19;;;;;;;3.65;1.60;;;6.60;99.90;;;;;;4994112;28;20042;-82
2023/10/29 05:34:45;;;;;;;3.92;1.77;;;6.40;99.90;;;;;;4996873;28;20073;-81
2023/10/29 05:37:11;;;;;;;1.65;1.55;;;6.50;99.90;;;;;;4997274;28;20509;-81
2023/10/29 05:39:36;;;;;;;1.60;1.50;;;6.30;99.90;;;;;;4999852;28;20076;-81
2023/10/29 05:42:03;;;;;;;1.88;1.70;;;6.30;99.90;;;;;;4999316;28;20585;-82
2023/10/29 05:44:28;;;;;;;2.45;1.65;;;6.20;99.90;;;;;;4995598;28;20030;-82
2023/10/29 05:46:54;;;;;;;2.03;1.70;;;6.20;99.90;;;;;;4976449;28;20034;-82
2023/10/29 05:49:20;;;;;;;2.28;1.65;;;6.10;99.90;;;;;;4993440;28;20096;-82
2023/10/29 05:51:45;;;;;;;1.50;1.40;;;6.00;99.90;;;;;;4999953;28;20505;-82
2023/10/29 05:54:11;;;;;;;3.85;1.60;;;6.10;99.90;;;;;;5001154;28;20037;-82
2023/10/29 05:56:37;;;;;;;3.05;2.05;;;6.00;99.90;;;;;;5005820;28;20093;-82
2023/10/29 05:59:02;;;;;;;3.22;2.25;;;5.90;99.90;;;;;;5003426;28;20022;-82
2023/10/29 06:01:28;;;;;;;4.22;1.88;;;5.90;99.90;;;;;;5005756;28;20037;-77
2023/10/29 06:03:57;;;;;;;4.80;1.50;;;5.80;99.90;;;;;;5004058;28;20102;-76
2023/10/29 06:06:22;;;;;;;2.05;1.63;;;5.20;99.90;;;;;;5002100;28;20030;-79
2023/10/29 06:08:48;;;;;;;4.85;1.73;;;5.20;99.90;;;;;;4996724;28;20064;-79
2023/10/29 06:11:17;;;;;;;2.13;1.80;;;5.00;99.90;;;;;;5001077;28;20499;-76
2023/10/29 06:13:44;;;;;;;4.82;3.65;;;5.10;99.90;;;;;;4994882;28;20022;-78
2023/10/29 06:16:10;;;;;;;4.90;3.55;;;5.30;99.90;;;;;;4996456;28;20109;-78
2023/10/29 06:18:35;;;;;;;2.83;2.30;;;5.40;99.90;;;;;;4999392;28;20534;-77
2023/10/29 06:21:02;;;;;;;7.60;4.57;;;5.50;99.90;;;;;;4998175;28;20502;-78
2023/10/29 06:23:28;;;;;;;3.67;2.10;;;5.60;99.90;;;;;;4997460;28;20030;-76
2023/10/29 06:25:54;;;;;;;7.80;2.30;;;5.70;99.90;;;;;;5003455;28;20057;-77
2023/10/29 06:28:19;;;;;;;2.15;1.85;;;5.70;99.90;;;;;;4998483;28;20042;-78
2023/10/29 06:30:45;;;;;;;2.28;2.00;;;5.70;99.90;;;;;;4978525;28;20050;-77
2023/10/29 06:33:11;;;;;;;3.67;2.30;;;5.70;99.90;;;;;;5003487;28;20133;-77
2023/10/29 06:35:36;;;;;;;2.05;1.65;;;5.70;99.90;;;;;;4987172;28;20490;-76
2023/10/29 06:38:02;;;;;;;1.60;1.50;;;5.70;99.90;;;;;;4997040;28;20037;-78
2023/10/29 06:40:28;;;;;;;2.95;2.25;;;5.80;99.90;;;;;;5001124;28;20053;-77
2023/10/29 06:42:53;;;;;;;1.63;1.52;;;5.70;99.90;;;;;;5001189;28;20512;-83
2023/10/29 06:45:19;;;;;;;1.95;1.80;;;5.70;99.90;;;;;;5002690;28;20046;-81
2023/10/29 06:47:45;;;;;;;3.28;1.80;;;5.80;99.90;;;;;;4966989;28;20038;-82
2023/10/29 06:50:10;;;;;;;3.10;1.80;;;5.80;99.90;;;;;;4999152;28;20756;-83
2023/10/29 06:52:36;;;;;;;5.32;2.10;;;5.80;99.90;;;;;;5002362;28;20030;-82
2023/10/29 06:55:02;;;;;;;2.30;2.10;;;5.80;99.90;;;;;;4992184;28;20085;-82
2023/10/29 06:57:28;;;;;;;2.78;2.08;;;5.80;99.90;;;;;;5003234;28;20034;-83
2023/10/29 06:59:54;;;;;;;1.90;1.73;;;5.80;99.90;;;;;;5001377;28;20129;-82
2023/10/29 07:02:22;;;;;;;2.72;1.88;;;5.90;99.90;;;;;;5005104;28;20080;-82
2023/10/29 07:04:48;;;;;;;3.15;2.13;;;5.90;99.90;;;;;;5007591;28;20026;-83
2023/10/29 07:07:18;;;;;;;2.50;2.30;;;5.90;99.90;;;;;;5003210;28;20046;-84
2023/10/29 07:09:44;;;;;;;2.00;1.80;;;5.90;99.90;;;;;;5001738;28;20033;-84
2023/10/29 07:12:09;;;;;;;2.60;2.40;;;5.90;99.90;;;;;;4989013;28;20030;-76
2023/10/29 07:14:45;;;;;;;2.45;1.83;;;5.90;99.90;;;;;;5002851;28;20092;-76
2023/10/29 07:17:14;;;;;;;2.15;2.00;;;6.00;99.90;;;;;;4998343;28;20070;-75
2023/10/29 07:19:52;;;;;;;2.20;1.90;;;5.90;99.90;;;;;;4987941;28;20083;-75
2023/10/29 07:22:21;;;;;;;3.60;2.20;;;6.00;99.90;;;;;;4987196;28;20176;-75
2023/10/29 07:24:47;;;;;;;2.08;1.88;;;6.10;99.90;;;;;;5006621;28;20038;-75
2023/10/29 07:27:22;;;;;;;2.92;1.80;;;6.10;99.90;;;;;;4987173;28;20054;-76
2023/10/29 07:29:52;;;;;;;5.63;2.05;;;6.20;99.90;;;;;;4984877;28;20030;-75
2023/10/29 07:32:18;;;;;;;4.28;2.00;;;6.30;99.90;;;;;;5002205;28;20038;-76
2023/10/29 07:34:44;;;;;;;3.22;2.05;;;6.30;99.90;;;;;;4988069;28;20030;-76
2023/10/29 07:40:04;;;;;;;3.60;1.98;;;6.40;99.90;;;;;;5003262;28;20038;-78
2023/10/29 07:42:52;;;;;;;3.20;1.75;;;6.50;99.90;;;;;;4988231;28;20069;-77
2023/10/29 07:45:19;;;;;;;3.58;2.05;;;6.50;99.90;;;;;;5005465;28;20034;-78
2023/10/29 07:48:21;;;;;;;2.20;2.00;;;6.60;99.90;;;;;;5005858;28;20183;-77
2023/10/29 07:51:03;;;;;;;2.80;2.10;;;6.60;99.90;;;;;;4983886;28;20055;-77
2023/10/29 07:53:30;;;;;;;2.00;1.80;;;6.60;99.90;;;;;;4964621;28;20036;-77
2023/10/29 07:56:10;;;;;;;3.22;2.45;;;6.70;99.90;;;;;;4952686;28;20023;-78
2023/10/29 07:58:37;;;;;;;3.72;2.17;;;6.70;99.90;;;;;;4973458;28;20428;-77
2023/10/29 08:01:10;;;;;;;3.05;2.30;;;6.70;99.90;;;;;;4959810;28;20070;-77
2023/10/29 08:03:36;;;;;;;3.95;2.13;;;6.90;99.90;;;;;;4960289;28;20031;-78
2023/10/29 08:06:02;;;;;;;2.13;1.83;;;6.90;99.90;;;;;;4960789;28;20074;-77
2023/10/29 08:08:28;;;;;;;2.92;2.28;;;7.00;99.90;;;;;;4959433;29;20047;-77
2023/10/29 08:10:54;;;;;;;2.42;2.13;;;7.10;99.90;;;;;;4961236;28;20039;-76
2023/10/29 08:13:20;;;;;;;2.42;2.22;;;7.30;99.90;;;;;;4961264;28;20062;-77
2023/10/29 08:15:46;;;;;;;3.70;1.88;;;7.50;99.90;;;;;;4955863;28;20109;-77
2023/10/29 08:18:12;;;;;;;3.72;2.35;;;7.60;99.90;;;;;;4962370;29;20062;-76
2023/10/29 08:20:38;;;;;;;2.42;2.22;;;7.70;99.90;;;;;;4962888;28;20083;-76
2023/10/29 08:23:03;;;;;;;4.20;2.78;;;7.80;99.90;;;;;;4955880;28;20035;-74
2023/10/29 08:25:29;;;;;;;5.50;3.15;;;8.00;99.90;;;;;;4954900;28;20023;-73
2023/10/29 08:27:55;;;;;;;2.78;2.40;;;8.20;99.90;;;;;;4954636;28;20042;-72
2023/10/29 08:30:20;;;;;;;3.60;2.40;;;8.40;99.90;;;;;;4959526;28;20031;-73
2023/10/29 08:32:46;;;;;;;4.38;2.50;;;8.60;99.90;;;;;;4955114;28;20134;-72
2023/10/29 08:35:11;;;;;;;6.45;2.80;;;8.80;99.90;;;;;;4960133;28;20030;-73
2023/10/29 08:37:37;;;;;;;3.50;2.60;;;9.10;99.90;;;;;;4959525;28;20049;-74
2023/10/29 08:40:03;;;;;;;3.00;2.70;;;9.30;99.90;;;;;;4956646;28;20066;-74
2023/10/29 08:42:30;;;;;;;2.85;2.28;;;9.60;99.90;;;;;;4958239;28;20047;-74
2023/10/29 08:44:56;;;;;;;3.25;2.78;;;9.80;99.90;;;;;;4956638;28;20034;-74
2023/10/29 08:47:23;;;;;;;3.25;2.53;;;10.00;99.90;;;;;;4959877;28;20113;-74
2023/10/29 08:49:49;;;;;;;3.55;2.60;;;10.20;99.90;;;;;;4963053;28;20052;-73
2023/10/29 08:52:14;;;;;;;2.72;2.17;;;10.30;99.90;;;;;;4993728;28;20517;-72
2023/10/29 08:54:40;;;;;;;3.80;2.08;;;10.50;99.90;;;;;;4994107;28;20031;-74
2023/10/29 08:57:06;;;;;;;2.13;1.90;;;10.70;99.90;;;;;;4999645;28;20114;-74
2023/10/29 08:59:32;;;;;;;2.55;2.10;;;10.80;99.90;;;;;;4996494;28;20057;-73
2023/10/29 09:01:57;;;;;;;2.50;2.10;;;11.00;99.90;;;;;;4997322;28;20042;-77
2023/10/29 09:04:23;;;;;;;2.85;1.98;;;11.20;99.90;;;;;;4999645;28;20026;-76
2023/10/29 09:06:49;;;;;;;1.60;1.50;;;11.40;99.90;;;;;;4997265;28;20049;-76
2023/10/29 09:09:15;;;;;;;2.83;1.90;;;11.70;99.90;;;;;;4998435;28;20039;-76
2023/10/29 09:11:43;;;;;;;3.88;1.98;;;11.80;99.90;;;;;;5000082;28;20481;-76
2023/10/29 09:14:11;;;;;;;1.90;1.80;;;12.00;99.90;;;;;;4998000;28;20041;-75
2023/10/29 09:16:37;;;;;;;1.85;1.73;;;12.10;99.90;;;;;;4999888;28;20117;-77
2023/10/29 09:19:03;;;;;;;1.58;1.25;;;12.30;99.90;;;;;;4994972;28;20513;-75
2023/10/29 09:21:29;;;;;;;2.55;1.38;;;12.50;99.90;;;;;;4998812;28;20040;-77
2023/10/29 09:23:54;;;;;;;2.17;1.50;;;12.80;99.90;;;;;;4999578;28;20034;-76
2023/10/29 09:26:20;;;;;;;1.67;1.40;;;12.90;99.90;;;;;;4998947;28;20038;-78
2023/10/29 09:28:46;;;;;;;1.52;1.20;;;13.10;99.90;;;;;;4997552;28;20035;-82
2023/10/29 09:31:16;;;;;;;1.63;1.38;;;13.20;99.90;;;;;;4999210;28;20053;-76
2023/10/29 09:33:42;;;;;;;2.17;1.50;;;13.20;99.90;;;;;;4999466;28;20038;-84
2023/10/29 09:36:08;;;;;;;1.10;1.02;;;13.20;99.90;;;;;;5000526;28;20029;-85
2023/10/29 09:38:34;;;;;;;1.65;1.33;;;13.40;99.90;;;;;;4982505;28;20035;-84
2023/10/29 09:40:59;;;;;;;1.60;1.20;;;13.50;99.90;;;;;;5001649;28;20030;-84
2023/10/29 09:43:41;;;;;;;1.48;1.00;;;13.60;99.90;;;;;;4988880;28;20045;-84
2023/10/29 09:46:07;;;;;;;1.10;1.10;;;13.80;99.90;;;;;;5003897;28;20046;-84
2023/10/29 09:48:42;;;;;;;1.27;1.17;;;13.80;99.90;;;;;;4999887;28;20043;-84
2023/10/29 09:51:07;;;;;;;1.00;1.00;;;13.90;99.90;;;;;;5002117;28;20050;-84
2023/10/29 09:53:37;;;;;;;1.20;0.82;;;14.00;99.90;;;;;;5007737;28;20038;-84
2023/10/29 09:56:07;;;;;;;1.30;0.90;;;14.00;99.90;;;;;;5002663;28;20026;-85
2023/10/29 09:58:34;;;;;;;1.20;1.20;;;14.00;99.90;;;;;;4980776;28;20054;-84
2023/10/29 10:01:01;;;;;;;1.38;0.93;;;14.10;99.90;;;;;;4998394;28;20038;-84
2023/10/29 10:03:27;;;;;;;1.08;0.88;;;14.20;99.90;;;;;;4999506;28;20038;-83
2023/10/29 10:05:54;;;;;;;1.23;0.80;;;14.30;99.90;;;;;;5003215;28;20608;-84
2023/10/29 10:08:25;;;;;;;1.13;0.90;;;14.30;99.90;;;;;;4997867;28;20061;-84
2023/10/29 10:10:52;;;;;;;0.93;0.77;;;14.40;99.90;;;;;;4999226;28;20069;-84
2023/10/29 10:13:17;;;;;;;0.80;0.80;;;14.50;99.90;;;;;;4999112;28;20030;-73
2023/10/29 10:15:51;;;;;;;1.02;0.93;;;14.60;99.90;;;;;;4993448;28;20038;-73
2023/10/29 10:18:16;;;;;;;2.10;1.02;;;14.60;99.90;;;;;;4992090;28;20049;-74
2023/10/29 10:20:42;;;;;;;1.38;0.82;;;14.70;99.90;;;;;;4991727;28;20030;-73
2023/10/29 10:23:13;;;;;;;1.10;1.00;;;14.70;99.90;;;;;;4991073;28;20046;-74
2023/10/29 10:25:40;;;;;;;0.90;0.90;;;14.70;99.90;;;;;;4993196;28;20030;-74
2023/10/29 10:28:06;;;;;;;1.27;1.05;;;14.90;99.90;;;;;;4992790;28;20092;-74
2023/10/29 10:30:40;;;;;;;0.88;0.88;;;14.90;99.90;;;;;;4998868;28;20053;-73
2023/10/29 10:33:11;;;;;;;1.13;1.05;;;15.00;99.90;;;;;;4996920;28;20073;-74
2023/10/29 10:35:43;;;;;;;1.92;1.08;;;15.00;99.90;;;;;;4993063;28;20121;-76
2023/10/29 10:38:10;;;;;;;1.13;0.85;;;15.00;99.90;;;;;;4992375;28;20089;-78
2023/10/29 10:40:37;;;;;;;0.90;0.90;;;15.10;99.90;;;;;;4994253;28;20534;-76
2023/10/29 10:43:04;;;;;;;1.10;1.00;;;15.20;99.90;;;;;;4997559;28;20522;-74
2023/10/29 10:45:31;;;;;;;1.02;1.00;;;15.40;99.90;;;;;;4994636;28;20054;-74
2023/10/29 10:48:00;;;;;;;1.20;1.10;;;15.40;99.90;;;;;;4978893;28;20034;-74
2023/10/29 10:50:28;;;;;;;1.35;0.80;;;15.50;99.90;;;;;;4994137;28;20046;-73
2023/10/29 10:52:56;;;;;;;0.80;0.80;;;15.50;99.90;;;;;;4987943;28;20049;-73
2023/10/29 10:55:23;;;;;;;;;;;15.50;99.90;;;;;;4998135;28;20023;-74
2023/10/29 10:57:52;;;;;;;0.80;0.80;;;15.50;99.90;;;;;;4997089;28;19924;-73
2023/10/29 11:00:21;;;;;;;0.70;0.70;;;15.50;99.90;;;;;;4995067;28;20113;-74
2023/10/29 11:02:48;;;;;;;0.80;0.80;;;15.50;99.90;;;;;;4993238;28;20054;-73
2023/10/29 11:05:18;;;;;;;0.73;0.73;;;15.60;99.90;;;;;;4992202;28;20038;-74
2023/10/29 11:07:44;;;;;;;0.98;0.80;;;15.50;99.90;;;;;;4979778;28;20034;-73
2023/10/29 11:10:15;;;;;;;1.05;0.90;;;15.40;99.90;;;;;;4997466;28;20045;-74
2023/10/29 11:12:41;;;;;;;0.75;0.75;;;15.30;99.90;;;;;;4999831;28;20211;-74
2023/10/29 11:15:15;;;;;;;1.60;0.93;;;15.30;99.90;;;;;;4994359;28;20035;-73
2023/10/29 11:18:01;;;;;;;0.77;0.70;;;15.30;99.90;;;;;;4991432;28;20038;-74
2023/10/29 11:20:49;;;;;;;0.93;0.93;;;15.30;99.90;;;;;;4993672;28;20117;-74
2023/10/29 11:23:21;;;;;;;0.77;0.77;;;15.30;99.90;;;;;;4992885;28;20117;-75
2023/10/29 11:25:47;;;;;;;1.00;0.80;;;15.30;99.90;;;;;;4980279;28;20031;-74
2023/10/29 11:28:33;;;;;;;0.82;0.80;;;15.40;99.90;;;;;;4974904;28;20407;-74
2023/10/29 11:31:13;;;;;;;1.15;1.05;;;15.40;99.90;;;;;;4973085;28;20491;-72
2023/10/29 11:33:43;;;;;;;1.25;0.77;;;15.50;99.90;;;;;;4997764;28;20037;-75
2023/10/29 11:36:46;;;;;;;1.33;1.00;;;15.60;99.90;;;;;;4992020;28;20742;-73
2023/10/29 11:39:15;;;;;;;1.27;0.90;;;15.70;99.90;;;;;;4994733;28;20042;-75
2023/10/29 11:41:44;;;;;;;0.82;0.82;;;15.60;99.90;;;;;;4995586;28;20041;-76
2023/10/29 11:44:28;;;;;;;1.20;0.90;;;15.60;99.90;;;;;;4979208;28;20034;-74
2023/10/29 11:47:01;;;;;;;1.50;1.10;;;15.70;99.90;;;;;;4995581;28;20114;-73
2023/10/29 11:49:31;;;;;;;1.83;1.05;;;15.70;99.90;;;;;;4992573;28;20074;-73
2023/10/29 11:52:04;;;;;;;1.10;1.00;;;15.70;99.90;;;;;;4999648;28;20030;-84
2023/10/29 11:54:32;;;;;;;1.92;1.00;;;15.70;99.90;;;;;;5010423;28;20030;-85
2023/10/29 11:56:58;;;;;;;;;;;15.70;99.90;;;;;;5007092;28;20029;-85
2023/10/29 11:59:24;;;;;;;0.90;0.90;;;15.70;99.90;;;;;;5005515;28;19918;-84
2023/10/29 12:01:50;;;;;;;1.52;1.00;;;15.80;99.90;;;;;;5008020;28;20065;-85
2023/10/29 12:04:16;;;;;;;1.08;0.98;;;15.80;99.90;;;;;;4993381;28;20760;-85
2023/10/29 12:06:43;;;;;;;0.80;0.80;;;15.80;99.90;;;;;;5005025;28;20029;-85
2023/10/29 12:09:19;;;;;;;0.80;0.80;;;15.90;99.90;;;;;;4987557;28;20045;-84
2023/10/29 12:11:48;;;;;;;1.70;0.80;;;15.90;99.90;;;;;;5002923;28;20515;-84
2023/10/29 12:14:15;;;;;;;1.10;1.00;;;16.00;99.90;;;;;;4997842;28;20107;-85
2023/10/29 12:16:41;;;;;;;2.20;0.90;;;16.10;99.90;;;;;;5005611;28;20104;-83
2023/10/29 12:19:07;;;;;;;0.80;0.80;;;16.10;99.90;;;;;;5001672;28;20033;-84
2023/10/29 12:21:33;;;;;;;1.83;1.08;;;16.20;99.90;;;;;;4983461;28;20026;-85
2023/10/29 12:24:01;;;;;;;0.70;0.70;;;16.30;99.90;;;;;;5005401;28;20037;-85
2023/10/29 12:26:27;;;;;;;0.80;0.80;;;16.30;99.90;;;;;;5003611;28;20044;-84
2023/10/29 12:28:53;;;;;;;0.98;0.70;;;16.40;99.90;;;;;;5003415;28;20053;-85
2023/10/29 12:31:26;;;;;;;0.80;0.80;;;16.50;99.90;;;;;;4998044;28;20057;-85
2023/10/29 12:33:59;;;;;;;1.48;1.10;;;16.40;99.90;;;;;;4994866;28;20031;-75
2023/10/29 12:36:26;;;;;;;0.90;0.70;;;16.40;99.90;;;;;;4996687;28;20371;-75
2023/10/29 12:38:54;;;;;;;0.68;0.68;;;16.40;99.90;;;;;;4994048;28;20034;-74
2023/10/29 12:41:21;;;;;;;1.90;1.17;;;16.30;99.90;;;;;;4996338;28;20030;-74
2023/10/29 12:43:51;;;;;;;0.90;0.90;;;16.30;99.90;;;;;;4998536;28;20034;-73
2023/10/29 12:46:22;;;;;;;1.13;0.90;;;16.30;99.90;;;;;;4995023;28;20034;-74
2023/10/29 12:48:59;;;;;;;1.52;1.05;;;16.20;99.90;;;;;;4993825;28;20043;-74
2023/10/29 12:51:32;;;;;;;1.00;0.90;;;16.30;99.90;;;;;;4992312;28;20050;-73
2023/10/29 12:54:19;;;;;;;3.03;0.90;;;16.20;99.90;;;;;;4998603;28;20046;-74
2023/10/29 12:56:58;;;;;;;3.78;1.05;;;16.30;99.90;;;;;;4996395;28;20038;-75
2023/10/29 12:59:31;;;;;;;2.17;2.08;;;16.30;99.90;;;;;;4996067;28;20061;-74
2023/10/29 13:01:59;;;;;;;2.35;1.92;;;16.30;99.90;;;;;;4995154;28;20066;-84